Terminal Aerodrome Forecast
Issued by NWS

Home | Current Version | Previous Version | Text Only | Print | Product List | Glossary On
Versions: 1 2 3 4 5 6 7 8 9 10 11 12 13 14 15 16 17
000
FTUS43 KIND 251720
TAFBMG
TAF
KBMG 251720Z 2518/2618 22008KT P6SM SCT040
     FM260000 VRB03KT P6SM SCT040 BKN250
     FM260700 00000KT 3SM BR SCT025 BKN100
     FM261500 VRB02KT P6SM SCT040 BKN100=

USA.gov is the U.S. government's official web portal to all federal, state and local government web resources and services.